createdAt,value
2022-11-29T00:01:18.187Z,14.50
2022-11-29T00:04:23.026Z,13.43
2022-11-29T00:07:27.836Z,13.20
2022-11-29T00:10:35.364Z,10.73
2022-11-29T00:13:40.436Z,13.60
2022-11-29T00:16:45.635Z,11.32
2022-11-29T00:19:50.364Z,13.25
2022-11-29T00:22:55.450Z,11.38
2022-11-29T00:26:08.421Z,11.13
2022-11-29T00:29:13.582Z,10.55
2022-11-29T00:32:18.787Z,14.60
2022-11-29T00:35:23.705Z,13.38
2022-11-29T00:38:28.582Z,14.55
2022-11-29T00:41:33.685Z,11.77
2022-11-29T00:44:38.387Z,10.23
2022-11-29T00:47:43.271Z,12.68
2022-11-29T00:50:48.300Z,12.55
2022-11-29T00:53:53.235Z,11.07
2022-11-29T00:56:58.290Z,14.15
2022-11-29T01:00:04.538Z,13.95
2022-11-29T01:03:09.801Z,11.50
2022-11-29T01:06:17.714Z,9.77
2022-11-29T01:09:22.524Z,8.85
2022-11-29T01:12:27.528Z,14.15
2022-11-29T01:15:33.097Z,13.45
2022-11-29T01:18:38.429Z,11.30
2022-11-29T01:21:43.380Z,12.82
2022-11-29T01:24:48.349Z,9.75
2022-11-29T01:27:54.304Z,11.57
2022-11-29T01:30:59.104Z,14.48
2022-11-29T01:34:05.953Z,11.70
2022-11-29T01:37:10.936Z,11.93
2022-11-29T01:40:15.848Z,14.30
2022-11-29T01:43:21.015Z,12.50
2022-11-29T01:46:31.119Z,13.68
2022-11-29T01:49:41.575Z,11.77
2022-11-29T01:52:47.634Z,13.45
2022-11-29T01:55:56.717Z,12.98
2022-11-29T01:59:04.517Z,19.55
2022-11-29T02:02:17.622Z,9.65
2022-11-29T02:05:23.849Z,19.48
2022-11-29T02:08:41.498Z,12.43
2022-11-29T02:12:34.997Z,12.80
2022-11-29T02:15:50.938Z,10.98
2022-11-29T02:19:13.166Z,15.52
2022-11-29T02:22:26.945Z,29.90
2022-11-29T02:26:09.257Z,35.55
2022-11-29T02:29:41.917Z,31.48
2022-11-29T02:33:34.676Z,26.55
2022-11-29T02:37:08.581Z,21.58
2022-11-29T02:40:43.019Z,28.38
2022-11-29T02:44:22.553Z,30.73
2022-11-29T02:48:00.170Z,35.38
2022-11-29T02:51:38.228Z,34.00
2022-11-29T02:54:59.520Z,36.28
2022-11-29T02:58:20.610Z,35.08
2022-11-29T03:02:27.301Z,37.22
2022-11-29T03:05:52.512Z,30.40
2022-11-29T03:09:25.914Z,36.30
2022-11-29T03:12:47.591Z,34.28
2022-11-29T03:16:42.760Z,33.67
2022-11-29T03:20:14.761Z,32.72
2022-11-29T03:23:52.875Z,24.90
2022-11-29T03:27:03.885Z,40.63
2022-11-29T03:30:13.347Z,46.33
2022-11-29T03:33:39.138Z,33.55
2022-11-29T03:37:24.959Z,32.70
2022-11-29T03:40:57.703Z,29.42
2022-11-29T03:44:11.561Z,27.20
2022-11-29T03:47:22.928Z,32.85
2022-11-29T03:50:39.368Z,34.53
2022-11-29T03:53:54.550Z,133.73
2022-11-29T03:57:00.135Z,81.13
2022-11-29T04:00:17.063Z,59.47
2022-11-29T04:03:40.008Z,49.58
2022-11-29T04:07:22.253Z,63.58
2022-11-29T04:11:54.717Z,52.67
2022-11-29T04:15:49.286Z,27.30
2022-11-29T04:19:27.838Z,25.27
2022-11-29T04:22:53.536Z,20.58
2022-11-29T04:26:10.039Z,16.27
2022-11-29T04:29:32.932Z,18.38
2022-11-29T04:33:25.467Z,17.33
2022-11-29T04:36:42.431Z,15.15
2022-11-29T04:39:59.380Z,27.40
2022-11-29T04:43:24.741Z,14.68
2022-11-29T04:46:48.835Z,16.85
2022-11-29T04:50:18.820Z,19.10
2022-11-29T04:54:29.632Z,16.58
2022-11-29T04:57:43.624Z,19.38
2022-11-29T05:01:24.705Z,17.15
2022-11-29T05:05:32.053Z,14.55
2022-11-29T05:09:07.512Z,16.63
2022-11-29T05:12:28.742Z,16.95
2022-11-29T05:15:56.566Z,16.00
2022-11-29T05:19:49.044Z,13.70
2022-11-29T05:23:40.641Z,16.42
2022-11-29T05:27:28.533Z,15.88
2022-11-29T05:31:03.116Z,26.95
2022-11-29T05:34:35.130Z,23.13
2022-11-29T05:38:22.675Z,23.15
2022-11-29T05:41:46.525Z,21.90
2022-11-29T05:45:02.569Z,19.95
2022-11-29T05:48:35.417Z,17.40
2022-11-29T05:52:11.571Z,17.98
2022-11-29T05:55:34.197Z,20.90
2022-11-29T05:58:50.581Z,14.77
2022-11-29T06:02:09.185Z,20.23
2022-11-29T06:05:43.596Z,20.48
2022-11-29T06:09:13.952Z,16.38
2022-11-29T06:12:23.262Z,21.45
2022-11-29T06:16:09.103Z,18.42
2022-11-29T06:19:43.682Z,17.80
2022-11-29T06:23:24.096Z,16.83
2022-11-29T06:26:44.927Z,16.77
2022-11-29T06:30:03.573Z,38.45
2022-11-29T06:33:19.193Z,23.10
2022-11-29T06:36:38.150Z,14.15
2022-11-29T06:39:43.568Z,13.85
2022-11-29T06:42:48.949Z,19.33
2022-11-29T06:46:03.340Z,17.80
2022-11-29T06:49:40.013Z,16.73
2022-11-29T06:53:00.482Z,22.80
2022-11-29T06:56:41.697Z,26.55
2022-11-29T07:00:22.673Z,31.75
2022-11-29T07:04:07.634Z,38.83
2022-11-29T07:07:19.072Z,16.38
2022-11-29T07:10:29.164Z,15.85
2022-11-29T07:13:34.777Z,20.73
2022-11-29T07:16:57.295Z,17.80
2022-11-29T07:20:10.473Z,14.57
2022-11-29T07:23:35.737Z,15.13
2022-11-29T07:26:59.292Z,21.02
2022-11-29T07:30:32.150Z,21.90
2022-11-29T07:34:23.397Z,23.48
2022-11-29T07:37:50.424Z,28.10
2022-11-29T07:41:26.461Z,29.60
2022-11-29T07:45:14.806Z,34.40
2022-11-29T07:48:19.383Z,32.63
2022-11-29T07:51:25.642Z,45.30
2022-11-29T07:54:30.514Z,40.53
2022-11-29T07:57:36.957Z,45.63
2022-11-29T08:00:43.928Z,51.50
2022-11-29T08:03:49.047Z,39.08
2022-11-29T08:06:54.089Z,46.05
2022-11-29T08:09:58.965Z,48.50
2022-11-29T08:13:03.823Z,42.25
2022-11-29T08:16:08.971Z,45.78
2022-11-29T08:19:13.831Z,47.35
2022-11-29T08:22:18.978Z,48.13
2022-11-29T08:25:26.172Z,43.22
2022-11-29T08:28:31.283Z,49.17
2022-11-29T08:31:36.643Z,45.95
2022-11-29T08:34:41.682Z,46.67
2022-11-29T08:37:46.611Z,45.75
2022-11-29T08:40:51.525Z,43.35
2022-11-29T08:43:56.712Z,42.20
2022-11-29T08:47:20.618Z,39.33
2022-11-29T08:50:25.751Z,42.22
2022-11-29T08:53:42.716Z,46.88
2022-11-29T09:00:13.443Z,43.42
2022-11-29T09:03:37.611Z,50.08
2022-11-29T09:06:45.313Z,51.03
2022-11-29T09:09:50.315Z,58.88
2022-11-29T09:12:55.208Z,53.30
2022-11-29T09:16:00.485Z,66.57
2022-11-29T09:19:06.600Z,51.03
2022-11-29T09:22:11.762Z,72.13
2022-11-29T09:25:16.692Z,69.70
2022-11-29T09:28:21.547Z,55.97
2022-11-29T09:31:27.474Z,47.92
2022-11-29T09:34:32.270Z,56.40
2022-11-29T09:37:37.289Z,48.70
2022-11-29T09:40:54.804Z,53.17
2022-11-29T09:44:34.475Z,53.70
2022-11-29T09:47:39.154Z,59.42
2022-11-29T09:51:24.204Z,58.25
2022-11-29T09:55:00.186Z,50.80
2022-11-29T09:58:13.587Z,53.17
2022-11-29T10:02:18.388Z,51.38
2022-11-29T10:05:42.855Z,53.70
2022-11-29T10:09:02.012Z,50.08
2022-11-29T10:12:35.909Z,52.95
2022-11-29T10:15:44.461Z,63.10
2022-11-29T10:19:01.450Z,61.83
2022-11-29T10:22:20.745Z,57.28
2022-11-29T10:25:48.236Z,56.13
2022-11-29T10:28:56.171Z,52.55
2022-11-29T10:32:10.095Z,47.85
2022-11-29T10:35:19.692Z,52.28
2022-11-29T10:38:32.515Z,51.40
2022-11-29T10:41:37.604Z,59.30
2022-11-29T10:44:42.957Z,52.55
2022-11-29T10:47:48.760Z,56.00
2022-11-29T10:50:54.138Z,54.60
2022-11-29T10:54:38.811Z,56.83
2022-11-29T10:58:17.340Z,61.53
2022-11-29T11:01:23.291Z,52.88
2022-11-29T11:04:37.211Z,59.10
2022-11-29T11:07:42.293Z,60.50
2022-11-29T11:10:56.407Z,58.83
2022-11-29T11:14:47.232Z,59.10
2022-11-29T11:17:59.768Z,60.17
2022-11-29T11:21:06.863Z,66.68
2022-11-29T11:24:30.443Z,63.30
2022-11-29T11:27:40.040Z,67.75
2022-11-29T11:30:54.851Z,70.10
2022-11-29T11:34:35.299Z,66.80
2022-11-29T11:37:40.146Z,69.15
2022-11-29T11:40:45.319Z,70.95
2022-11-29T11:43:59.425Z,64.43
2022-11-29T11:47:06.692Z,71.82
2022-11-29T11:50:26.050Z,68.07
2022-11-29T11:53:36.454Z,65.38
2022-11-29T11:56:41.646Z,70.60
2022-11-29T11:59:52.061Z,67.95
2022-11-29T12:02:59.078Z,62.17
2022-11-29T12:06:43.770Z,66.88
2022-11-29T12:09:55.097Z,67.93
2022-11-29T12:13:01.017Z,67.05
2022-11-29T12:16:28.282Z,65.40
2022-11-29T12:19:43.269Z,75.40
2022-11-29T12:22:53.813Z,74.22
2022-11-29T12:26:28.569Z,46.65
2022-11-29T12:29:41.348Z,63.92
2022-11-29T12:33:17.421Z,55.75
2022-11-29T12:36:34.063Z,65.97
2022-11-29T12:39:46.258Z,59.40
2022-11-29T12:43:27.513Z,61.50
2022-11-29T12:46:33.201Z,54.65
2022-11-29T12:50:31.577Z,58.60
2022-11-29T12:54:15.575Z,59.95
2022-11-29T12:58:10.541Z,64.72
2022-11-29T13:01:41.416Z,64.53
2022-11-29T13:05:01.516Z,64.50
2022-11-29T13:08:49.258Z,68.82
2022-11-29T13:12:27.952Z,61.42
2022-11-29T13:16:29.187Z,59.75
2022-11-29T13:19:53.671Z,61.50
2022-11-29T13:23:14.864Z,54.10
2022-11-29T13:26:22.503Z,55.72
2022-11-29T13:29:32.220Z,63.60
2022-11-29T13:33:14.751Z,61.83
2022-11-29T13:36:45.609Z,63.35
2022-11-29T13:40:21.891Z,62.63
2022-11-29T13:43:41.942Z,60.10
2022-11-29T13:47:10.678Z,61.67
2022-11-29T13:50:42.581Z,65.53
2022-11-29T13:53:49.302Z,63.42
2022-11-29T13:57:20.769Z,64.68
2022-11-29T14:00:51.425Z,64.75
2022-11-29T14:04:31.704Z,65.30
2022-11-29T14:08:42.190Z,65.80
2022-11-29T14:12:25.569Z,62.83
2022-11-29T14:15:32.600Z,63.42
2022-11-29T14:18:37.177Z,63.35
2022-11-29T14:22:05.417Z,63.05
2022-11-29T14:26:00.657Z,68.18
2022-11-29T14:29:50.041Z,61.95
2022-11-29T14:33:21.242Z,62.83
2022-11-29T14:36:49.619Z,64.78
2022-11-29T14:39:55.242Z,71.43
2022-11-29T14:43:02.444Z,64.32
2022-11-29T14:46:16.875Z,67.38
2022-11-29T14:49:25.008Z,64.63
2022-11-29T14:52:32.830Z,68.88
2022-11-29T14:55:38.710Z,69.93
2022-11-29T14:58:44.914Z,59.50
2022-11-29T15:01:50.753Z,64.25
2022-11-29T15:04:57.126Z,74.40
2022-11-29T15:08:10.468Z,63.17
2022-11-29T15:11:52.307Z,90.75
2022-11-29T15:15:18.622Z,72.10
2022-11-29T15:19:00.446Z,64.93
2022-11-29T15:22:41.860Z,61.13
2022-11-29T15:26:00.627Z,57.03
2022-11-29T15:29:19.464Z,60.53
2022-11-29T15:32:28.585Z,62.50
2022-11-29T15:35:35.396Z,57.40
2022-11-29T15:38:53.649Z,57.30
2022-11-29T15:42:12.421Z,84.07
2022-11-29T15:45:31.259Z,67.80
2022-11-29T15:48:36.748Z,61.15
2022-11-29T15:51:42.118Z,101.28
2022-11-29T15:54:51.987Z,61.63
2022-11-29T15:57:57.908Z,66.18
2022-11-29T16:01:03.673Z,55.15
2022-11-29T16:04:19.138Z,68.90
2022-11-29T16:07:25.950Z,58.67
2022-11-29T16:10:57.800Z,65.57
2022-11-29T16:14:25.256Z,57.10
2022-11-29T16:17:34.297Z,62.38
2022-11-29T16:20:40.314Z,64.55
2022-11-29T16:23:46.628Z,63.42
2022-11-29T16:26:52.919Z,77.35
2022-11-29T16:29:58.209Z,67.13
2022-11-29T16:33:05.443Z,72.70
2022-11-29T16:36:16.563Z,56.70
2022-11-29T16:39:24.681Z,108.63
2022-11-29T16:42:32.560Z,60.75
2022-11-29T16:45:42.151Z,74.53
2022-11-29T16:48:51.585Z,72.63
2022-11-29T16:51:56.361Z,97.80
2022-11-29T16:55:01.183Z,69.30
2022-11-29T16:58:06.181Z,79.55
2022-11-29T17:01:28.589Z,197.70
2022-11-29T17:04:33.505Z,65.80
2022-11-29T17:07:39.503Z,91.95
2022-11-29T17:10:44.385Z,103.75
2022-11-29T17:13:52.803Z,79.63
2022-11-29T17:17:00.954Z,75.63
2022-11-29T17:20:07.601Z,83.53
2022-11-29T17:23:12.534Z,83.72
2022-11-29T17:26:18.309Z,87.15
2022-11-29T17:29:23.651Z,74.38
2022-11-29T17:32:28.784Z,65.95
2022-11-29T17:35:35.127Z,70.50
2022-11-29T17:38:40.266Z,62.70
2022-11-29T17:41:45.442Z,60.90
2022-11-29T17:44:50.477Z,76.03
2022-11-29T17:47:55.320Z,72.22
2022-11-29T17:51:00.972Z,66.55
2022-11-29T17:54:06.970Z,70.80
2022-11-29T17:57:12.957Z,68.30
2022-11-29T18:00:18.912Z,69.63
2022-11-29T18:03:23.978Z,61.50
2022-11-29T18:06:38.822Z,70.40
2022-11-29T18:09:46.371Z,76.93
2022-11-29T18:12:51.765Z,80.30
2022-11-29T18:16:07.569Z,76.72
2022-11-29T18:19:15.983Z,61.60
2022-11-29T18:22:20.847Z,82.05
2022-11-29T18:25:41.132Z,74.82
2022-11-29T18:28:46.506Z,83.75
2022-11-29T18:31:51.591Z,78.63
2022-11-29T18:34:56.894Z,72.88
2022-11-29T18:38:17.122Z,81.18
2022-11-29T18:41:23.586Z,74.75
2022-11-29T18:44:31.346Z,76.05
2022-11-29T18:47:35.968Z,76.70
2022-11-29T18:50:40.963Z,80.70
2022-11-29T18:53:46.435Z,80.93
2022-11-29T18:56:51.742Z,69.10
2022-11-29T18:59:56.641Z,72.55
2022-11-29T19:03:01.287Z,69.50
2022-11-29T19:06:14.863Z,69.90
2022-11-29T19:09:21.840Z,69.22
2022-11-29T19:12:26.627Z,65.18
2022-11-29T19:15:31.532Z,73.63
2022-11-29T19:18:36.552Z,69.05
2022-11-29T19:21:41.919Z,60.25
2022-11-29T19:24:47.121Z,72.95
2022-11-29T19:27:52.375Z,71.75
2022-11-29T19:30:58.280Z,75.93
2022-11-29T19:34:03.179Z,66.97
2022-11-29T19:37:09.307Z,72.43
2022-11-29T19:40:13.883Z,70.65
2022-11-29T19:43:18.883Z,73.32
2022-11-29T19:46:30.115Z,77.43
2022-11-29T19:49:36.806Z,71.93
2022-11-29T19:52:41.978Z,73.35
2022-11-29T19:55:46.929Z,74.40
2022-11-29T19:58:52.299Z,71.40
2022-11-29T20:01:57.185Z,82.13
2022-11-29T20:05:02.216Z,77.30
2022-11-29T20:08:06.954Z,73.90
2022-11-29T20:11:23.330Z,77.38
2022-11-29T20:14:28.039Z,74.57
2022-11-29T20:17:33.162Z,67.70
2022-11-29T20:20:38.276Z,79.05
2022-11-29T20:23:43.953Z,78.95
2022-11-29T20:26:49.702Z,79.32
2022-11-29T20:29:54.722Z,76.55
2022-11-29T20:33:00.096Z,79.38
2022-11-29T20:36:45.927Z,76.25
2022-11-29T20:40:02.095Z,74.13
2022-11-29T20:43:20.453Z,79.15
2022-11-29T20:46:26.090Z,77.13
2022-11-29T20:49:31.556Z,74.55
2022-11-29T20:52:52.875Z,82.43
2022-11-29T20:55:58.982Z,81.35
2022-11-29T20:59:03.853Z,70.40
2022-11-29T21:02:08.995Z,69.63
2022-11-29T21:05:16.095Z,82.72
2022-11-29T21:08:24.641Z,78.70
2022-11-29T21:11:30.119Z,79.32
2022-11-29T21:14:35.979Z,71.55
2022-11-29T21:17:42.191Z,77.53
2022-11-29T21:20:57.963Z,78.45
2022-11-29T21:24:47.224Z,70.18
2022-11-29T21:27:53.550Z,64.82
2022-11-29T21:30:58.995Z,79.35
2022-11-29T21:34:04.327Z,84.60
2022-11-29T21:37:09.154Z,75.20
2022-11-29T21:40:18.339Z,81.18
2022-11-29T21:43:50.242Z,83.50
2022-11-29T21:46:48.560Z,82.20
2022-11-29T21:49:54.630Z,89.85
2022-11-29T21:52:59.307Z,89.97
2022-11-29T21:56:10.140Z,86.28
2022-11-29T21:59:14.986Z,90.10
2022-11-29T22:02:20.298Z,100.03
2022-11-29T22:05:25.526Z,98.75
2022-11-29T22:08:34.904Z,145.13
2022-11-29T22:11:40.281Z,113.60
2022-11-29T22:14:45.559Z,152.32
2022-11-29T22:17:50.725Z,108.90
2022-11-29T22:20:55.291Z,114.07
2022-11-29T22:23:59.954Z,95.97
2022-11-29T22:27:04.959Z,97.28
2022-11-29T22:30:10.063Z,105.20
2022-11-29T22:33:14.932Z,88.07
2022-11-29T22:36:19.695Z,82.18
2022-11-29T22:39:24.584Z,85.07
2022-11-29T22:42:29.334Z,85.47
2022-11-29T22:45:34.162Z,82.72
2022-11-29T22:48:39.894Z,82.75
2022-11-29T22:51:45.019Z,102.03
2022-11-29T22:54:50.181Z,101.03
2022-11-29T22:57:55.027Z,93.90
2022-11-29T23:01:14.627Z,99.85
2022-11-29T23:04:19.233Z,88.28
2022-11-29T23:07:24.200Z,96.72
2022-11-29T23:10:29.038Z,92.32
2022-11-29T23:13:37.871Z,102.50
2022-11-29T23:16:43.044Z,85.50
2022-11-29T23:19:48.301Z,91.13
2022-11-29T23:22:54.036Z,89.28
2022-11-29T23:25:59.388Z,102.93
2022-11-29T23:29:07.523Z,88.03
2022-11-29T23:32:12.202Z,84.82
2022-11-29T23:35:17.090Z,74.07
2022-11-29T23:38:21.985Z,78.90
2022-11-29T23:41:27.027Z,80.15
2022-11-29T23:44:32.052Z,85.28
2022-11-29T23:47:37.453Z,81.13
2022-11-29T23:50:43.269Z,85.88
2022-11-29T23:53:53.193Z,77.13
2022-11-29T23:56:57.826Z,83.25
